createdAt,value
2022-12-29T00:04:02.122Z,100.00
2022-12-29T00:09:07.305Z,100.00
2022-12-29T00:14:32.236Z,100.00
2022-12-29T00:19:54.574Z,100.00
2022-12-29T00:25:17.102Z,100.00
2022-12-29T00:30:42.836Z,100.00
2022-12-29T00:35:53.498Z,100.00
2022-12-29T00:41:15.677Z,100.00
2022-12-29T00:46:21.747Z,100.00
2022-12-29T00:51:26.832Z,100.00
2022-12-29T00:56:31.706Z,100.00
2022-12-29T01:01:39.100Z,100.00
2022-12-29T01:06:44.199Z,100.00
2022-12-29T01:11:52.018Z,100.00
2022-12-29T01:16:58.485Z,100.00
2022-12-29T01:22:03.250Z,100.00
2022-12-29T01:27:07.790Z,100.00
2022-12-29T01:32:14.560Z,100.00
2022-12-29T01:37:19.259Z,100.00
2022-12-29T01:42:27.731Z,100.00
2022-12-29T01:47:39.819Z,100.00
2022-12-29T01:52:52.874Z,100.00
2022-12-29T01:58:04.196Z,98.19
2022-12-29T02:03:12.224Z,98.72
2022-12-29T02:08:18.809Z,95.25
2022-12-29T02:13:26.771Z,98.02
2022-12-29T02:18:46.633Z,93.67
2022-12-29T02:24:14.758Z,92.12
2022-12-29T02:29:44.873Z,91.68
2022-12-29T02:35:04.809Z,92.36
2022-12-29T02:40:26.630Z,91.31
2022-12-29T02:45:38.215Z,91.34
2022-12-29T02:50:52.182Z,89.00
2022-12-29T02:55:57.193Z,88.36
2022-12-29T03:01:19.457Z,88.04
2022-12-29T03:06:39.145Z,87.12
2022-12-29T03:12:11.247Z,89.08
2022-12-29T03:17:29.649Z,90.29
2022-12-29T03:22:42.320Z,88.69
2022-12-29T03:27:55.611Z,87.00
2022-12-29T03:33:04.943Z,89.97
2022-12-29T03:38:18.362Z,88.60
2022-12-29T03:43:24.971Z,86.68
2022-12-29T03:48:31.460Z,86.33
2022-12-29T03:53:38.622Z,85.47
2022-12-29T03:58:43.388Z,83.77
2022-12-29T04:03:52.607Z,84.72
2022-12-29T04:08:59.119Z,84.18
2022-12-29T04:14:04.185Z,82.85
2022-12-29T04:19:11.304Z,82.41
2022-12-29T04:24:17.644Z,82.10
2022-12-29T04:29:24.235Z,82.66
2022-12-29T04:34:51.672Z,82.85
2022-12-29T04:39:58.615Z,81.59
2022-12-29T04:45:03.354Z,79.04
2022-12-29T04:50:26.848Z,78.30
2022-12-29T04:55:55.066Z,78.66
2022-12-29T05:01:01.254Z,77.94
2022-12-29T05:06:09.231Z,79.49
2022-12-29T05:11:16.362Z,79.90
2022-12-29T05:16:24.070Z,77.89
2022-12-29T05:21:31.662Z,79.62
2022-12-29T05:26:39.480Z,78.11
2022-12-29T05:31:49.857Z,79.10
2022-12-29T05:36:54.967Z,77.59
2022-12-29T05:42:01.257Z,77.84
2022-12-29T05:47:27.462Z,77.87
2022-12-29T05:52:48.458Z,79.05
2022-12-29T05:57:54.742Z,79.34
2022-12-29T06:03:01.116Z,76.62
2022-12-29T06:08:07.047Z,76.02
2022-12-29T06:13:15.919Z,78.22
2022-12-29T06:18:23.818Z,78.56
2022-12-29T06:23:29.265Z,79.08
2022-12-29T06:28:35.344Z,78.13
2022-12-29T06:33:41.816Z,79.68
2022-12-29T06:38:54.015Z,78.47
2022-12-29T06:44:07.389Z,78.18
2022-12-29T06:49:33.957Z,76.31
2022-12-29T06:54:43.188Z,78.58
2022-12-29T06:59:52.782Z,78.33
2022-12-29T07:05:00.740Z,78.97
2022-12-29T07:10:07.267Z,78.15
2022-12-29T07:15:14.037Z,79.82
2022-12-29T07:20:24.792Z,78.16
2022-12-29T07:25:34.005Z,79.23
2022-12-29T07:30:44.123Z,78.36
2022-12-29T07:35:48.749Z,80.45
2022-12-29T07:40:53.420Z,80.26
2022-12-29T07:45:59.759Z,81.53
2022-12-29T07:51:06.745Z,80.07
2022-12-29T07:56:11.553Z,81.38
2022-12-29T08:01:17.951Z,80.83
2022-12-29T08:06:25.587Z,85.11
2022-12-29T08:11:30.789Z,85.38
2022-12-29T08:16:37.267Z,84.92
2022-12-29T08:21:42.106Z,82.29
2022-12-29T08:26:49.327Z,83.42
2022-12-29T08:31:55.754Z,83.51
2022-12-29T08:37:00.602Z,83.04
2022-12-29T08:42:05.149Z,82.07
2022-12-29T08:47:12.910Z,82.38
2022-12-29T08:52:17.572Z,82.27
2022-12-29T08:57:22.814Z,82.01
2022-12-29T09:02:51.916Z,83.77
2022-12-29T09:07:56.704Z,81.69
2022-12-29T09:13:01.384Z,82.30
2022-12-29T09:18:08.089Z,81.48
2022-12-29T09:23:13.648Z,79.73
2022-12-29T09:28:18.896Z,78.79
2022-12-29T09:33:25.207Z,81.52
2022-12-29T09:38:30.973Z,80.66
2022-12-29T09:43:52.098Z,82.29
2022-12-29T09:49:09.933Z,81.89
2022-12-29T09:54:27.521Z,81.50
2022-12-29T09:59:41.665Z,84.18
2022-12-29T10:04:47.788Z,81.53
2022-12-29T10:10:04.735Z,81.85
2022-12-29T10:15:19.652Z,79.97
2022-12-29T10:20:52.247Z,81.87
2022-12-29T10:25:58.362Z,83.23
2022-12-29T10:31:10.650Z,82.75
2022-12-29T10:36:20.634Z,81.73
2022-12-29T10:41:33.883Z,79.46
2022-12-29T10:46:39.971Z,79.41
2022-12-29T10:51:49.877Z,80.12
2022-12-29T10:56:57.145Z,80.20
2022-12-29T11:02:22.340Z,80.12
2022-12-29T11:07:32.469Z,78.78
2022-12-29T11:12:37.762Z,81.12
2022-12-29T11:17:50.572Z,79.66
2022-12-29T11:22:57.041Z,80.73
2022-12-29T11:28:03.701Z,79.51
2022-12-29T11:33:08.448Z,81.18
2022-12-29T11:38:23.214Z,82.69
2022-12-29T11:43:34.689Z,82.81
2022-12-29T11:48:42.764Z,81.67
2022-12-29T11:53:51.908Z,82.04
2022-12-29T11:58:56.582Z,80.24
2022-12-29T12:04:05.751Z,81.93
2022-12-29T12:09:19.955Z,79.73
2022-12-29T12:14:30.240Z,76.45
2022-12-29T12:20:05.056Z,78.85
2022-12-29T12:25:21.335Z,74.41
2022-12-29T12:30:29.756Z,76.53
2022-12-29T12:35:43.848Z,75.73
2022-12-29T12:41:08.052Z,76.09
2022-12-29T12:46:31.645Z,77.10
2022-12-29T12:51:45.103Z,79.34
2022-12-29T12:57:12.660Z,83.19
2022-12-29T13:02:42.879Z,80.15
2022-12-29T13:08:00.915Z,79.01
2022-12-29T13:13:36.332Z,80.01
2022-12-29T13:18:51.867Z,81.04
2022-12-29T13:24:03.596Z,81.87
2022-12-29T13:29:19.784Z,82.18
2022-12-29T13:34:35.217Z,83.81
2022-12-29T13:39:43.596Z,83.50
2022-12-29T13:44:56.986Z,83.40
2022-12-29T13:50:05.092Z,83.31
2022-12-29T13:55:28.461Z,86.00
2022-12-29T14:00:42.999Z,91.31
2022-12-29T14:05:49.669Z,93.44
2022-12-29T14:10:54.858Z,91.14
2022-12-29T14:16:05.301Z,94.69
2022-12-29T14:21:20.006Z,96.17
2022-12-29T14:26:40.591Z,94.53
2022-12-29T14:31:46.559Z,90.83
2022-12-29T14:36:56.906Z,92.10
2022-12-29T14:42:07.625Z,95.44
2022-12-29T14:47:21.911Z,97.16
2022-12-29T14:52:30.584Z,94.53
2022-12-29T14:57:39.061Z,98.75
2022-12-29T15:02:50.148Z,98.29
2022-12-29T15:07:57.903Z,100.00
2022-12-29T15:13:06.865Z,100.00
2022-12-29T15:18:26.225Z,100.00
2022-12-29T15:23:33.549Z,100.00
2022-12-29T15:28:43.427Z,100.00
2022-12-29T15:33:51.146Z,100.00
2022-12-29T15:38:57.278Z,100.00
2022-12-29T15:44:14.975Z,100.00
2022-12-29T15:49:30.327Z,100.00
2022-12-29T15:54:37.425Z,100.00
2022-12-29T15:59:49.343Z,100.00
2022-12-29T16:10:30.332Z,100.00
2022-12-29T16:15:35.082Z,100.00
2022-12-29T16:20:44.867Z,100.00
2022-12-29T16:25:49.740Z,100.00
2022-12-29T16:31:01.677Z,100.00
2022-12-29T16:36:27.503Z,100.00
2022-12-29T16:41:32.710Z,100.00
2022-12-29T16:46:37.252Z,100.00
2022-12-29T16:51:44.340Z,100.00
2022-12-29T16:56:48.838Z,100.00
2022-12-29T17:01:53.628Z,100.00
2022-12-29T17:07:00.426Z,100.00
2022-12-29T17:12:11.302Z,100.00
2022-12-29T17:17:24.188Z,100.00
2022-12-29T17:22:31.058Z,100.00
2022-12-29T17:27:39.365Z,100.00
2022-12-29T17:32:46.278Z,100.00
2022-12-29T17:37:52.443Z,100.00
2022-12-29T17:42:59.562Z,100.00
2022-12-29T17:48:04.245Z,100.00
2022-12-29T17:53:15.589Z,100.00
2022-12-29T17:58:21.574Z,100.00
2022-12-29T18:03:29.210Z,100.00
2022-12-29T18:08:36.610Z,100.00
2022-12-29T18:13:46.267Z,100.00
2022-12-29T18:18:51.553Z,100.00
2022-12-29T18:23:57.549Z,100.00
2022-12-29T18:29:01.712Z,100.00
2022-12-29T18:34:14.192Z,100.00
2022-12-29T18:39:24.153Z,100.00
2022-12-29T18:44:31.325Z,100.00
2022-12-29T18:49:35.762Z,100.00
2022-12-29T18:54:41.680Z,100.00
2022-12-29T18:59:45.830Z,100.00
2022-12-29T19:04:53.147Z,100.00
2022-12-29T19:10:01.251Z,100.00
2022-12-29T19:15:07.335Z,100.00
2022-12-29T19:20:27.209Z,100.00
2022-12-29T19:25:34.187Z,100.00
2022-12-29T19:30:40.173Z,100.00
2022-12-29T19:35:45.688Z,100.00
2022-12-29T19:40:55.173Z,100.00
2022-12-29T19:45:59.829Z,100.00
2022-12-29T19:51:09.034Z,100.00
2022-12-29T19:56:15.662Z,100.00
2022-12-29T20:01:22.707Z,100.00
2022-12-29T20:06:27.615Z,100.00
2022-12-29T20:11:33.770Z,100.00
2022-12-29T20:16:54.787Z,100.00
2022-12-29T20:22:03.153Z,100.00
2022-12-29T20:27:11.142Z,100.00
2022-12-29T20:32:18.436Z,100.00
2022-12-29T20:37:23.516Z,100.00
2022-12-29T20:42:29.895Z,100.00
2022-12-29T20:47:34.456Z,100.00
2022-12-29T20:52:39.069Z,100.00
2022-12-29T20:58:22.044Z,100.00
2022-12-29T21:03:09.732Z,100.00
2022-12-29T21:08:14.425Z,100.00
2022-12-29T21:13:20.843Z,100.00
2022-12-29T21:18:25.696Z,100.00
2022-12-29T21:23:30.742Z,100.00
2022-12-29T21:28:39.531Z,100.00
2022-12-29T21:33:43.963Z,100.00
2022-12-29T21:38:48.602Z,100.00
2022-12-29T21:44:17.368Z,100.00
2022-12-29T21:49:23.986Z,100.00
2022-12-29T21:54:47.360Z,100.00
2022-12-29T22:00:11.037Z,100.00
2022-12-29T22:05:34.378Z,100.00
2022-12-29T22:11:00.137Z,100.00
2022-12-29T22:16:07.752Z,100.00
2022-12-29T22:21:12.446Z,100.00
2022-12-29T22:26:17.469Z,100.00
2022-12-29T22:31:27.903Z,100.00
2022-12-29T22:36:33.643Z,100.00
2022-12-29T22:41:38.082Z,100.00
2022-12-29T22:46:44.403Z,100.00
2022-12-29T22:51:48.991Z,100.00
2022-12-29T22:56:54.438Z,100.00
2022-12-29T23:02:00.825Z,100.00
2022-12-29T23:07:07.828Z,100.00
2022-12-29T23:12:12.332Z,100.00
2022-12-29T23:17:18.280Z,100.00
2022-12-29T23:22:23.423Z,100.00
2022-12-29T23:27:28.204Z,100.00
2022-12-29T23:32:34.096Z,100.00
2022-12-29T23:37:38.610Z,100.00
2022-12-29T23:42:42.997Z,100.00
2022-12-29T23:47:49.097Z,100.00
2022-12-29T23:52:53.516Z,100.00
2022-12-29T23:57:57.912Z,100.00
